createdAt,value
2018-11-09T00:02:24.808Z,5.50
2018-11-09T00:04:55.841Z,5.40
2018-11-09T00:07:25.286Z,5.40
2018-11-09T00:09:54.401Z,5.40
2018-11-09T00:12:24.876Z,5.30
2018-11-09T00:14:55.482Z,5.30
2018-11-09T00:17:25.775Z,5.20
2018-11-09T00:19:57.042Z,5.10
2018-11-09T00:22:26.172Z,5.20
2018-11-09T00:24:55.257Z,5.20
2018-11-09T00:27:24.518Z,5.30
2018-11-09T00:29:53.719Z,5.40
2018-11-09T00:32:23.820Z,5.40
2018-11-09T00:35:09.904Z,5.40
2018-11-09T00:37:39.080Z,5.40
2018-11-09T00:40:10.235Z,5.40
2018-11-09T00:42:40.482Z,5.30
2018-11-09T00:45:11.206Z,5.30
2018-11-09T00:47:40.591Z,5.30
2018-11-09T00:50:10.161Z,5.20
2018-11-09T00:52:39.367Z,5.40
2018-11-09T00:55:10.525Z,5.50
2018-11-09T00:57:39.804Z,5.50
2018-11-09T01:00:11.044Z,5.40
2018-11-09T01:02:40.284Z,5.40
2018-11-09T01:05:09.413Z,5.40
2018-11-09T01:07:38.613Z,5.40
2018-11-09T01:10:08.601Z,5.40
2018-11-09T01:12:38.416Z,5.30
2018-11-09T01:15:08.167Z,5.30
2018-11-09T01:17:37.457Z,5.30
2018-11-09T01:20:08.932Z,5.40
2018-11-09T01:22:38.139Z,5.30
2018-11-09T01:25:08.370Z,5.30
2018-11-09T01:27:39.573Z,5.30
2018-11-09T01:30:12.739Z,5.40
2018-11-09T01:32:42.440Z,5.40
2018-11-09T01:35:11.624Z,5.40
2018-11-09T01:37:40.989Z,5.40
2018-11-09T01:40:13.148Z,5.40
2018-11-09T01:42:42.646Z,5.40
2018-11-09T01:45:14.070Z,5.40
2018-11-09T01:47:48.612Z,5.30
2018-11-09T01:50:22.318Z,5.40
2018-11-09T01:52:53.755Z,5.40
2018-11-09T01:55:23.008Z,5.40
2018-11-09T01:57:52.319Z,5.50
2018-11-09T02:00:22.696Z,5.60
2018-11-09T02:02:53.021Z,5.60
2018-11-09T02:05:23.029Z,5.60
2018-11-09T02:07:52.850Z,5.60
2018-11-09T02:10:22.408Z,5.50
2018-11-09T02:12:52.696Z,5.40
2018-11-09T02:15:26.352Z,5.40
2018-11-09T02:17:55.650Z,5.30
2018-11-09T02:20:24.928Z,5.30
2018-11-09T02:22:54.081Z,5.30
2018-11-09T02:25:23.336Z,5.30
2018-11-09T02:27:53.962Z,5.30
2018-11-09T02:30:23.429Z,5.30
2018-11-09T02:32:57.177Z,5.30
2018-11-09T02:35:29.195Z,5.30
2018-11-09T02:37:59.510Z,5.30
2018-11-09T02:40:34.340Z,5.30
2018-11-09T02:43:03.591Z,5.30
2018-11-09T02:45:34.510Z,5.40
2018-11-09T02:48:03.844Z,5.40
2018-11-09T02:50:37.029Z,5.40
2018-11-09T02:53:06.320Z,5.40
2018-11-09T02:55:36.186Z,5.40
2018-11-09T02:58:05.372Z,5.50
2018-11-09T03:00:36.147Z,5.50
2018-11-09T03:03:05.424Z,5.50
2018-11-09T03:05:34.652Z,5.50
2018-11-09T03:08:05.672Z,5.50
2018-11-09T03:10:34.831Z,5.50
2018-11-09T03:13:03.991Z,5.50
2018-11-09T03:15:33.262Z,5.50
2018-11-09T03:18:02.674Z,5.50
2018-11-09T03:20:32.333Z,5.50
2018-11-09T03:23:02.445Z,5.50
2018-11-09T03:25:31.811Z,5.50
2018-11-09T03:28:01.191Z,5.50
2018-11-09T03:30:30.554Z,5.50
2018-11-09T03:32:59.764Z,5.40
2018-11-09T03:35:39.557Z,5.50
2018-11-09T03:38:08.733Z,5.50
2018-11-09T03:40:37.936Z,5.50
2018-11-09T03:43:09.100Z,5.60
2018-11-09T03:45:40.230Z,5.60
2018-11-09T03:48:09.374Z,5.70
2018-11-09T03:50:38.655Z,5.70
2018-11-09T03:53:08.074Z,5.70
2018-11-09T03:55:37.328Z,5.70
2018-11-09T03:58:06.858Z,5.80
2018-11-09T04:00:37.598Z,5.80
2018-11-09T04:03:06.800Z,5.80
2018-11-09T04:05:36.013Z,5.80
2018-11-09T04:08:05.343Z,5.80
2018-11-09T04:10:34.511Z,5.80
2018-11-09T04:13:03.669Z,5.70
2018-11-09T04:15:34.432Z,5.70
2018-11-09T04:18:04.911Z,5.80
2018-11-09T04:20:34.366Z,5.80
2018-11-09T04:23:06.017Z,5.90
2018-11-09T04:25:35.143Z,5.90
2018-11-09T04:28:04.329Z,5.90
2018-11-09T04:30:33.676Z,6.00
2018-11-09T04:33:05.763Z,6.00
2018-11-09T04:35:37.148Z,6.10
2018-11-09T04:38:07.217Z,6.10
2018-11-09T04:40:36.515Z,6.20
2018-11-09T04:43:06.025Z,6.20
2018-11-09T04:45:40.374Z,6.30
2018-11-09T04:48:14.185Z,6.30
2018-11-09T04:50:45.032Z,6.30
2018-11-09T04:53:15.703Z,6.30
2018-11-09T04:55:45.476Z,6.30
2018-11-09T04:58:14.598Z,6.40
2018-11-09T05:00:43.844Z,6.40
2018-11-09T05:03:16.894Z,6.40
2018-11-09T05:05:47.576Z,6.40
2018-11-09T05:08:19.776Z,6.40
2018-11-09T05:11:06.243Z,6.50
2018-11-09T05:13:35.330Z,6.50
2018-11-09T05:16:04.723Z,6.50
2018-11-09T05:18:35.934Z,6.60
2018-11-09T05:21:05.416Z,6.60
2018-11-09T05:23:35.081Z,6.70
2018-11-09T05:26:19.155Z,6.70
2018-11-09T05:29:01.539Z,6.80
2018-11-09T05:31:46.529Z,6.80
2018-11-09T05:34:26.172Z,6.80
2018-11-09T05:36:55.360Z,6.80
2018-11-09T05:39:24.516Z,6.80
2018-11-09T05:41:53.596Z,6.80
2018-11-09T05:44:22.688Z,6.90
2018-11-09T05:46:51.828Z,6.90
2018-11-09T05:49:21.757Z,6.90
2018-11-09T05:51:50.922Z,6.90
2018-11-09T05:54:20.320Z,7.00
2018-11-09T05:56:51.943Z,7.00
2018-11-09T05:59:21.098Z,7.10
2018-11-09T06:01:50.348Z,7.10
2018-11-09T06:04:19.607Z,7.10
2018-11-09T06:06:49.059Z,7.10
2018-11-09T06:09:18.729Z,7.20
2018-11-09T06:11:48.078Z,7.20
2018-11-09T06:14:17.335Z,7.20
2018-11-09T06:16:46.778Z,7.30
2018-11-09T06:19:16.223Z,7.30
2018-11-09T06:21:46.405Z,7.30
2018-11-09T06:24:16.331Z,7.30
2018-11-09T06:26:45.543Z,7.40
2018-11-09T06:29:16.880Z,7.40
2018-11-09T06:31:48.610Z,7.40
2018-11-09T06:34:21.196Z,7.40
2018-11-09T06:37:04.011Z,7.50
2018-11-09T06:39:37.770Z,7.50
2018-11-09T06:42:07.108Z,7.50
2018-11-09T06:44:38.574Z,7.50
2018-11-09T06:47:11.232Z,7.60
2018-11-09T06:49:40.595Z,7.60
2018-11-09T06:52:16.634Z,7.60
2018-11-09T06:55:04.501Z,7.60
2018-11-09T07:00:53.183Z,7.70
2018-11-09T07:03:23.610Z,7.70
2018-11-09T07:05:53.304Z,7.70
2018-11-09T07:08:22.898Z,7.70
2018-11-09T07:10:53.061Z,7.80
2018-11-09T07:13:23.208Z,7.80
2018-11-09T07:15:52.860Z,7.80
2018-11-09T07:18:34.088Z,7.80
2018-11-09T07:21:03.330Z,7.90
2018-11-09T07:23:32.851Z,7.90
2018-11-09T07:26:02.548Z,7.90
2018-11-09T07:28:32.371Z,7.90
2018-11-09T07:33:28.756Z,8.00
2018-11-09T07:36:01.201Z,8.00
2018-11-09T07:38:32.674Z,8.10
2018-11-09T07:41:01.951Z,8.10
2018-11-09T07:43:36.393Z,8.10
2018-11-09T07:46:07.288Z,8.10
2018-11-09T07:48:36.927Z,8.10
2018-11-09T07:51:08.184Z,8.10
2018-11-09T07:53:37.443Z,8.10
2018-11-09T07:56:07.224Z,8.20
2018-11-09T07:58:37.210Z,8.20
2018-11-09T08:01:06.757Z,8.20
2018-11-09T08:03:36.483Z,8.20
2018-11-09T08:06:05.726Z,8.20
2018-11-09T08:08:34.912Z,8.20
2018-11-09T08:11:07.861Z,8.30
2018-11-09T08:13:42.021Z,8.20
2018-11-09T08:16:12.484Z,8.30
2018-11-09T08:18:41.792Z,8.40
2018-11-09T08:21:10.878Z,8.40
2018-11-09T08:23:42.026Z,8.40
2018-11-09T08:26:11.685Z,8.50
2018-11-09T08:28:41.300Z,8.50
2018-11-09T08:31:16.132Z,8.50
2018-11-09T08:33:46.429Z,8.60
2018-11-09T08:36:22.531Z,8.70
2018-11-09T08:38:53.323Z,8.70
2018-11-09T08:41:26.615Z,8.80
2018-11-09T08:43:58.019Z,8.90
2018-11-09T08:46:28.437Z,8.90
2018-11-09T08:48:57.627Z,9.00
2018-11-09T08:51:27.749Z,9.00
2018-11-09T08:53:57.165Z,9.00
2018-11-09T08:56:44.036Z,9.10
2018-11-09T08:59:20.739Z,9.10
2018-11-09T09:01:50.337Z,9.10
2018-11-09T09:04:22.424Z,9.20
2018-11-09T09:06:52.138Z,9.20
2018-11-09T09:09:24.866Z,9.30
2018-11-09T09:11:56.634Z,9.30
2018-11-09T09:14:32.930Z,9.40
2018-11-09T09:17:02.344Z,9.40
2018-11-09T09:19:35.560Z,9.40
2018-11-09T09:22:04.985Z,9.40
2018-11-09T09:24:34.487Z,9.40
2018-11-09T09:27:06.892Z,9.40
2018-11-09T09:29:41.766Z,9.40
2018-11-09T09:32:11.026Z,9.50
2018-11-09T09:34:40.602Z,9.50
2018-11-09T09:37:10.061Z,9.50
2018-11-09T09:39:39.782Z,9.50
2018-11-09T09:42:10.550Z,9.60
2018-11-09T09:44:40.286Z,9.60
2018-11-09T09:47:09.638Z,9.60
2018-11-09T09:52:18.095Z,9.70
2018-11-09T09:54:47.717Z,9.80
2018-11-09T09:57:17.622Z,9.80
2018-11-09T09:59:47.978Z,9.90
2018-11-09T10:02:17.536Z,9.90
2018-11-09T10:04:48.027Z,9.90
2018-11-09T10:07:33.141Z,9.90
2018-11-09T10:10:16.363Z,10.00
2018-11-09T10:26:39.764Z,10.20
2018-11-09T10:29:09.227Z,10.90
2018-11-09T10:31:38.488Z,11.10
2018-11-09T10:34:09.424Z,11.20
2018-11-09T10:36:40.047Z,11.30
2018-11-09T10:39:10.299Z,11.30
2018-11-09T10:41:40.041Z,11.40
2018-11-09T10:44:16.462Z,11.50
2018-11-09T10:46:48.911Z,11.60
2018-11-09T10:49:23.889Z,11.70
2018-11-09T10:51:54.761Z,11.60
2018-11-09T10:54:24.167Z,11.60
2018-11-09T10:56:59.874Z,11.60
2018-11-09T10:59:29.034Z,11.40
2018-11-09T11:03:04.985Z,11.10
2018-11-09T11:05:34.432Z,11.10
2018-11-09T11:08:04.561Z,11.00
2018-11-09T11:10:34.234Z,10.90
2018-11-09T11:13:03.572Z,11.00
2018-11-09T11:15:34.869Z,11.20
2018-11-09T11:18:04.394Z,11.50
2018-11-09T11:20:34.422Z,11.60
2018-11-09T11:23:03.967Z,11.60
2018-11-09T11:25:33.235Z,11.60
2018-11-09T11:28:03.159Z,11.80
2018-11-09T11:30:32.648Z,11.80
2018-11-09T11:33:02.207Z,11.90
2018-11-09T11:35:32.440Z,11.80
2018-11-09T11:38:02.892Z,11.60
2018-11-09T11:40:32.258Z,11.50
2018-11-09T11:43:03.023Z,11.50
2018-11-09T11:45:32.286Z,11.40
2018-11-09T11:48:02.333Z,11.40
2018-11-09T11:50:32.098Z,11.30
2018-11-09T11:53:02.473Z,11.30
2018-11-09T11:55:37.890Z,11.40
2018-11-09T11:58:11.050Z,11.50
2018-11-09T12:00:40.812Z,11.70
2018-11-09T12:03:11.137Z,11.70
2018-11-09T12:06:02.044Z,11.70
2018-11-09T12:08:31.335Z,11.70
2018-11-09T12:11:01.875Z,11.70
2018-11-09T12:13:31.350Z,11.80
2018-11-09T12:16:00.532Z,12.00
2018-11-09T12:18:30.547Z,12.10
2018-11-09T12:21:01.241Z,12.10
2018-11-09T12:23:32.967Z,12.10
2018-11-09T12:26:05.594Z,12.20
2018-11-09T12:28:34.995Z,12.20
2018-11-09T12:31:04.866Z,12.10
2018-11-09T12:33:34.943Z,11.90
2018-11-09T12:36:05.461Z,11.90
2018-11-09T12:38:36.207Z,11.80
2018-11-09T12:41:08.798Z,11.80
2018-11-09T12:43:39.205Z,11.80
2018-11-09T12:46:08.521Z,11.80
2018-11-09T12:48:37.959Z,11.90
2018-11-09T12:51:07.292Z,12.00
2018-11-09T12:53:41.340Z,12.00
2018-11-09T12:56:14.676Z,11.90
2018-11-09T12:58:48.540Z,12.00
2018-11-09T13:01:18.364Z,12.10
2018-11-09T13:03:47.461Z,12.20
2018-11-09T13:06:19.165Z,12.30
2018-11-09T13:08:55.771Z,12.30
2018-11-09T13:11:26.361Z,12.40
2018-11-09T13:13:58.009Z,12.40
2018-11-09T13:16:35.295Z,12.40
2018-11-09T13:19:05.245Z,12.40
2018-11-09T13:21:34.780Z,12.40
2018-11-09T13:24:03.886Z,12.50
2018-11-09T13:26:33.253Z,12.50
2018-11-09T13:29:03.537Z,12.50
2018-11-09T13:31:36.938Z,12.50
2018-11-09T13:34:11.588Z,12.40
2018-11-09T13:36:41.372Z,12.40
2018-11-09T13:39:10.767Z,12.40
2018-11-09T13:41:40.106Z,12.40
2018-11-09T13:44:09.546Z,12.40
2018-11-09T13:46:38.931Z,12.40
2018-11-09T13:49:11.594Z,12.40
2018-11-09T13:51:41.045Z,12.30
2018-11-09T13:54:15.199Z,12.20
2018-11-09T13:56:44.665Z,12.20
2018-11-09T13:59:14.788Z,12.10
2018-11-09T14:01:43.995Z,12.10
2018-11-09T14:04:15.005Z,12.00
2018-11-09T14:06:44.378Z,12.10
2018-11-09T14:09:13.572Z,12.00
2018-11-09T14:11:48.168Z,12.00
2018-11-09T14:14:17.579Z,12.00
2018-11-09T14:16:47.713Z,12.00
2018-11-09T14:19:18.414Z,12.00
2018-11-09T14:21:47.660Z,12.00
2018-11-09T14:24:17.096Z,11.90
2018-11-09T14:26:46.269Z,11.90
2018-11-09T14:29:15.975Z,11.90
2018-11-09T14:31:45.520Z,11.90
2018-11-09T14:34:19.378Z,11.90
2018-11-09T14:36:51.972Z,11.90
2018-11-09T14:39:21.436Z,11.90
2018-11-09T14:41:51.084Z,11.90
2018-11-09T14:44:20.393Z,11.90
2018-11-09T14:46:50.332Z,11.90
2018-11-09T14:49:22.411Z,11.80
2018-11-09T14:51:52.397Z,11.80
2018-11-09T14:54:27.437Z,11.80
2018-11-09T14:57:01.091Z,11.80
2018-11-09T14:59:32.019Z,11.80
2018-11-09T15:02:02.880Z,11.70
2018-11-09T15:07:13.558Z,11.70
2018-11-09T15:09:44.349Z,11.70
2018-11-09T15:12:15.273Z,11.70
2018-11-09T15:14:45.495Z,11.70
2018-11-09T15:17:37.293Z,11.60
2018-11-09T15:20:13.727Z,11.60
2018-11-09T15:22:45.489Z,11.60
2018-11-09T15:25:17.459Z,11.50
2018-11-09T15:27:48.119Z,11.50
2018-11-09T15:30:21.811Z,11.50
2018-11-09T15:32:56.876Z,11.50
2018-11-09T15:38:33.817Z,11.50
2018-11-09T15:41:02.991Z,11.50
2018-11-09T15:43:32.318Z,11.40
2018-11-09T15:46:06.142Z,11.40
2018-11-09T16:01:42.072Z,11.40
2018-11-09T16:04:12.160Z,11.30
2018-11-09T16:06:41.431Z,11.30
2018-11-09T16:09:11.477Z,11.30
2018-11-09T16:11:40.916Z,11.30
2018-11-09T16:14:34.916Z,11.30
2018-11-09T16:17:05.918Z,11.30
2018-11-09T16:19:35.292Z,11.30
2018-11-09T16:22:36.208Z,11.30
2018-11-09T16:25:06.384Z,11.30
2018-11-09T16:27:35.911Z,11.30
2018-11-09T16:30:07.063Z,11.30
2018-11-09T16:32:38.918Z,11.30
2018-11-09T16:35:08.414Z,11.20
2018-11-09T16:38:07.055Z,11.20
2018-11-09T16:40:40.114Z,11.20
2018-11-09T16:43:14.914Z,11.20
2018-11-09T16:45:44.688Z,11.20
2018-11-09T16:48:48.414Z,11.20
2018-11-09T16:51:32.607Z,11.10
2018-11-09T16:54:01.926Z,11.10
2018-11-09T16:56:33.738Z,11.00
2018-11-09T16:59:04.780Z,11.00
2018-11-09T17:01:34.677Z,10.90
2018-11-09T17:07:01.863Z,10.80
2018-11-09T17:09:33.568Z,10.80
2018-11-09T17:12:05.919Z,10.80
2018-11-09T17:14:36.444Z,10.80
2018-11-09T17:17:05.710Z,10.80
2018-11-09T17:19:36.563Z,10.80
2018-11-09T17:22:06.914Z,10.70
2018-11-09T17:24:36.833Z,10.70
2018-11-09T17:30:11.359Z,10.60
2018-11-09T17:32:41.267Z,10.60
2018-11-09T17:38:16.276Z,10.50
2018-11-09T17:40:49.051Z,10.40
2018-11-09T17:43:35.797Z,10.30
2018-11-09T17:46:38.308Z,10.30
2018-11-09T17:49:12.083Z,10.20
2018-11-09T17:54:42.110Z,10.10
2018-11-09T17:57:32.178Z,10.10
2018-11-09T18:00:03.492Z,10.00
2018-11-09T18:02:34.128Z,10.00
2018-11-09T18:05:06.531Z,10.00
2018-11-09T18:07:36.185Z,9.90
2018-11-09T18:10:07.496Z,9.80
2018-11-09T18:12:36.863Z,9.80
2018-11-09T18:15:07.872Z,9.70
2018-11-09T18:17:37.041Z,9.70
2018-11-09T18:20:08.218Z,9.60
2018-11-09T18:22:37.405Z,9.50
2018-11-09T18:25:06.681Z,9.50
2018-11-09T18:27:38.878Z,9.50
2018-11-09T18:30:09.169Z,9.40
2018-11-09T18:32:38.374Z,9.40
2018-11-09T18:35:08.013Z,9.40
2018-11-09T18:37:37.196Z,9.30
2018-11-09T18:40:09.743Z,9.30
2018-11-09T18:42:39.119Z,9.30
2018-11-09T18:45:09.115Z,9.20
2018-11-09T18:47:38.439Z,9.20
2018-11-09T18:50:09.280Z,9.10
2018-11-09T18:52:39.070Z,9.10
2018-11-09T18:55:11.158Z,9.10
2018-11-09T18:57:40.983Z,9.10
2018-11-09T19:00:12.189Z,9.10
2018-11-09T19:02:41.252Z,9.00
2018-11-09T19:05:11.823Z,9.00
2018-11-09T19:07:41.389Z,9.00
2018-11-09T19:10:25.358Z,9.00
2018-11-09T19:12:56.604Z,9.00
2018-11-09T19:15:25.838Z,9.00
2018-11-09T19:17:55.026Z,9.00
2018-11-09T19:20:24.177Z,9.00
2018-11-09T19:23:06.538Z,9.00
2018-11-09T19:25:35.820Z,9.00
2018-11-09T19:28:05.786Z,9.00
2018-11-09T19:30:35.069Z,9.00
2018-11-09T19:33:04.623Z,9.10
2018-11-09T19:35:33.680Z,9.10
2018-11-09T19:38:02.922Z,9.10
2018-11-09T19:40:32.090Z,9.20
2018-11-09T19:43:01.295Z,9.20
2018-11-09T19:45:32.006Z,9.30
2018-11-09T19:48:01.665Z,9.30
2018-11-09T19:50:31.234Z,9.40
2018-11-09T19:53:00.544Z,9.40
2018-11-09T19:55:29.946Z,9.50
2018-11-09T19:57:59.345Z,9.50
2018-11-09T20:00:28.513Z,9.50
2018-11-09T20:02:57.903Z,9.60
2018-11-09T20:05:27.308Z,9.60
2018-11-09T20:07:56.875Z,9.60
2018-11-09T20:10:26.116Z,9.60
2018-11-09T20:12:58.046Z,9.70
2018-11-09T20:15:27.181Z,9.70
2018-11-09T20:18:01.147Z,9.70
2018-11-09T20:20:30.639Z,9.70
2018-11-09T20:25:44.823Z,9.70
2018-11-09T20:28:13.945Z,9.70
2018-11-09T20:30:43.857Z,9.70
2018-11-09T20:33:13.105Z,9.80
2018-11-09T20:35:42.508Z,9.70
2018-11-09T20:38:11.662Z,9.70
2018-11-09T20:40:40.989Z,9.70
2018-11-09T20:43:10.182Z,9.70
2018-11-09T20:45:40.362Z,9.80
2018-11-09T20:48:10.808Z,9.80
2018-11-09T20:50:39.964Z,9.80
2018-11-09T20:53:09.111Z,9.80
2018-11-09T20:55:38.239Z,9.70
2018-11-09T21:01:04.170Z,9.70
2018-11-09T21:03:33.458Z,9.70
2018-11-09T21:06:03.715Z,9.70
2018-11-09T21:08:33.501Z,9.70
2018-11-09T21:11:05.913Z,9.70
2018-11-09T21:13:35.575Z,9.70
2018-11-09T21:19:07.632Z,9.60
2018-11-09T21:22:05.545Z,9.70
2018-11-09T21:24:35.244Z,9.70
2018-11-09T21:27:04.371Z,9.70
2018-11-09T21:29:33.735Z,9.70
2018-11-09T21:32:03.036Z,9.70
2018-11-09T21:34:32.782Z,9.70
2018-11-09T21:37:02.198Z,9.60
2018-11-09T21:42:38.530Z,9.60
2018-11-09T21:45:07.966Z,9.70
2018-11-09T21:47:37.918Z,9.60
2018-11-09T21:50:08.292Z,9.60
2018-11-09T21:52:37.598Z,9.70
2018-11-09T21:55:07.795Z,9.70
2018-11-09T21:57:37.229Z,9.70
2018-11-09T22:00:17.141Z,9.60
2018-11-09T22:02:47.148Z,9.70
2018-11-09T22:05:16.641Z,9.60
2018-11-09T22:07:46.981Z,9.70
2018-11-09T22:10:17.812Z,9.70
2018-11-09T22:13:22.382Z,9.60
2018-11-09T22:15:51.448Z,9.60
2018-11-09T22:18:20.985Z,9.70
2018-11-09T22:20:50.218Z,9.70
2018-11-09T22:23:19.495Z,9.60
2018-11-09T22:25:49.675Z,9.60
2018-11-09T22:28:18.870Z,9.60
2018-11-09T22:30:48.048Z,9.60
2018-11-09T22:33:18.281Z,9.60
2018-11-09T22:35:47.544Z,9.60
2018-11-09T22:38:16.730Z,9.60
2018-11-09T22:40:45.862Z,9.60
2018-11-09T22:43:15.039Z,9.60
2018-11-09T22:45:44.161Z,9.60
2018-11-09T22:48:13.264Z,9.60
2018-11-09T22:50:42.384Z,9.60
2018-11-09T22:53:11.535Z,9.50
2018-11-09T22:55:40.642Z,9.50
2018-11-09T22:58:09.861Z,9.50
2018-11-09T23:00:44.284Z,9.50
2018-11-09T23:03:14.122Z,9.50
2018-11-09T23:05:43.308Z,9.50
2018-11-09T23:08:12.352Z,9.50
2018-11-09T23:10:43.362Z,9.50
2018-11-09T23:13:12.466Z,9.40
2018-11-09T23:15:41.690Z,9.40
2018-11-09T23:18:10.778Z,9.40
2018-11-09T23:20:39.833Z,9.40
2018-11-09T23:23:10.346Z,9.40
2018-11-09T23:25:39.465Z,9.40
2018-11-09T23:28:08.651Z,9.30
2018-11-09T23:30:37.810Z,9.30
2018-11-09T23:33:07.228Z,9.30
2018-11-09T23:35:36.282Z,9.30
2018-11-09T23:38:05.547Z,9.30
2018-11-09T23:40:34.817Z,9.20
2018-11-09T23:43:08.761Z,9.20
2018-11-09T23:45:38.376Z,9.20
2018-11-09T23:48:08.421Z,9.10
2018-11-09T23:50:37.826Z,9.10
2018-11-09T23:53:06.995Z,9.00
2018-11-09T23:55:36.593Z,8.90
2018-11-09T23:58:05.927Z,8.80
